Terminal Aerodrome Forecast
Issued by NWS Boston, MA

Home | Current Version | Previous Version | Text Only | Print | Product List | Glossary On
Versions: 1 2 3 4 5 6 7 8 9 10 11 12 13 14 15 16 17 18 19 20 21 22 23 24 25 26 27 28 29 30 31 32 33 34 35 36 37 38 39 40 41 42 43 44 45 46 47 48
000
FTUS41 KBOX 080540
TAFBDL
TAF
KBDL 080540Z 0806/0912 00000KT P6SM SKC
     FM090300 19005KT P6SM BKN100
     FM090500 19006KT P6SM BKN060
     FM090600 19006KT P6SM OVC025
     FM090800 19004KT 6SM -DZ BR OVC015
     FM091000 18004KT 4SM -DZ BR OVC015
     FM091100 18003KT 3SM BR VCSH OVC010=

USA.gov is the U.S. government's official web portal to all federal, state and local government web resources and services.